createdAt,value
2023-03-24T00:02:37.691Z,98230.86
2023-03-24T00:07:41.602Z,98229.14
2023-03-24T00:12:46.388Z,98227.94
2023-03-24T00:17:52.819Z,98221.53
2023-03-24T00:22:59.373Z,98215.98
2023-03-24T00:28:01.886Z,98211.83
2023-03-24T00:33:04.298Z,98207.86
2023-03-24T00:38:06.194Z,98205.27
2023-03-24T00:43:09.389Z,98199.58
2023-03-24T00:48:15.176Z,98188.70
2023-03-24T00:53:19.231Z,98173.17
2023-03-24T00:58:21.814Z,98165.98
2023-03-24T01:03:28.191Z,98165.70
2023-03-24T01:08:30.000Z,98166.09
2023-03-24T01:13:32.065Z,98161.13
2023-03-24T01:18:35.101Z,98156.49
2023-03-24T01:23:38.317Z,98154.26
2023-03-24T01:28:41.154Z,98156.16
2023-03-24T01:33:43.048Z,98153.58
2023-03-24T01:38:45.601Z,98150.98
2023-03-24T01:43:47.774Z,98149.44
2023-03-24T01:49:03.150Z,98142.88
2023-03-24T01:54:08.444Z,98144.59
2023-03-24T01:59:15.056Z,98132.33
2023-03-24T02:04:40.390Z,98126.99
2023-03-24T02:09:42.914Z,98127.70
2023-03-24T02:14:44.934Z,98124.61
2023-03-24T02:19:58.737Z,98125.66
2023-03-24T02:25:41.694Z,98123.39
2023-03-24T02:31:05.021Z,98118.03
2023-03-24T02:36:21.884Z,98114.74
2023-03-24T02:41:40.972Z,98112.48
2023-03-24T02:46:48.443Z,98109.73
2023-03-24T02:51:53.326Z,98105.80
2023-03-24T02:57:09.840Z,98103.80
2023-03-24T03:02:41.759Z,98098.91
2023-03-24T03:07:47.045Z,98099.39
2023-03-24T03:12:53.069Z,98104.85
2023-03-24T03:18:18.817Z,98102.90
2023-03-24T03:23:28.425Z,98100.27
2023-03-24T03:28:33.047Z,98099.83
2023-03-24T03:33:49.944Z,98098.20
2023-03-24T03:39:00.378Z,98096.58
2023-03-24T03:44:02.403Z,98094.95
2023-03-24T03:49:07.728Z,98099.98
2023-03-24T03:54:13.574Z,98104.39
2023-03-24T03:59:42.457Z,98103.29
2023-03-24T04:05:05.717Z,98105.63
2023-03-24T04:10:36.245Z,98106.59
2023-03-24T04:15:45.661Z,98108.77
2023-03-24T04:21:28.574Z,98106.61
2023-03-24T04:26:54.777Z,98098.61
2023-03-24T04:32:30.552Z,98101.10
2023-03-24T04:37:38.099Z,98097.20
2023-03-24T04:42:52.726Z,98084.86
2023-03-24T04:47:59.663Z,98079.59
2023-03-24T04:53:16.349Z,98077.08
2023-03-24T04:58:20.389Z,98074.99
2023-03-24T05:06:28.384Z,98068.15
2023-03-24T05:11:30.319Z,98063.34
2023-03-24T05:16:38.050Z,98061.11
2023-03-24T05:21:40.195Z,98060.78
2023-03-24T05:26:42.284Z,98060.09
2023-03-24T05:31:49.294Z,98057.50
2023-03-24T05:36:53.054Z,98058.86
2023-03-24T05:41:56.654Z,98058.17
2023-03-24T05:46:58.370Z,98057.13
2023-03-24T05:52:01.846Z,98056.27
2023-03-24T05:57:04.514Z,98057.80
2023-03-24T06:02:17.562Z,98052.09
2023-03-24T06:07:34.324Z,98048.78
2023-03-24T06:12:36.190Z,98049.61
2023-03-24T06:17:38.500Z,98047.50
2023-03-24T06:22:47.616Z,98048.86
2023-03-24T06:27:52.082Z,98049.84
2023-03-24T06:32:57.398Z,98047.40
2023-03-24T06:37:59.337Z,98046.48
2023-03-24T06:43:01.603Z,98050.21
2023-03-24T06:48:04.429Z,98048.60
2023-03-24T06:53:06.767Z,98043.67
2023-03-24T06:58:11.013Z,98041.77
2023-03-24T07:03:48.564Z,98040.80
2023-03-24T07:09:09.353Z,98040.33
2023-03-24T07:14:11.941Z,98043.35
2023-03-24T07:19:14.584Z,98046.63
2023-03-24T07:24:19.697Z,98041.54
2023-03-24T07:29:32.419Z,98043.59
2023-03-24T07:34:51.608Z,98041.41
2023-03-24T07:39:54.528Z,98039.42
2023-03-24T07:44:56.498Z,98030.73
2023-03-24T07:49:59.359Z,98029.40
2023-03-24T07:55:01.088Z,98021.31
2023-03-24T08:00:20.522Z,98019.09
2023-03-24T08:05:37.473Z,98006.80
2023-03-24T08:11:05.604Z,98010.88
2023-03-24T08:16:07.916Z,98009.06
2023-03-24T08:21:09.634Z,98009.52
2023-03-24T08:26:11.988Z,98007.30
2023-03-24T08:31:13.817Z,98000.20
2023-03-24T08:36:16.881Z,97992.39
2023-03-24T08:41:18.853Z,97976.55
2023-03-24T08:46:21.091Z,97970.42
2023-03-24T08:51:23.575Z,97961.04
2023-03-24T08:56:25.997Z,97953.90
2023-03-24T09:01:28.455Z,97949.61
2023-03-24T09:06:30.425Z,97949.09
2023-03-24T09:11:32.095Z,97944.34
2023-03-24T09:16:34.715Z,97937.80
2023-03-24T09:21:38.529Z,97934.90
2023-03-24T09:26:41.179Z,97928.95
2023-03-24T09:31:42.917Z,97923.02
2023-03-24T09:36:44.704Z,97916.72
2023-03-24T09:41:47.880Z,97913.36
2023-03-24T09:46:57.545Z,97907.44
2023-03-24T09:52:06.371Z,97906.96
2023-03-24T09:57:38.908Z,97908.56
2023-03-24T10:02:40.910Z,97901.13
2023-03-24T10:07:49.125Z,97894.17
2023-03-24T10:12:51.037Z,97886.77
2023-03-24T10:18:11.083Z,97883.08
2023-03-24T10:23:43.973Z,97880.09
2023-03-24T10:28:52.559Z,97872.93
2023-03-24T10:33:54.776Z,97868.45
2023-03-24T10:38:58.729Z,97870.88
2023-03-24T10:44:02.487Z,97874.47
2023-03-24T10:49:31.297Z,97870.56
2023-03-24T10:54:33.153Z,97865.92
2023-03-24T10:59:39.766Z,97864.98
2023-03-24T11:04:48.576Z,97862.42
2023-03-24T11:10:07.552Z,97853.18
2023-03-24T11:15:24.086Z,97851.14
2023-03-24T11:20:32.408Z,97841.56
2023-03-24T11:25:39.051Z,97840.71
2023-03-24T11:31:08.079Z,97832.10
2023-03-24T11:36:34.979Z,97821.77
2023-03-24T11:41:39.323Z,97810.15
2023-03-24T11:46:43.534Z,97800.77
2023-03-24T11:51:49.393Z,97799.66
2023-03-24T11:56:59.130Z,97799.33
2023-03-24T12:02:12.079Z,97795.46
2023-03-24T12:07:35.696Z,97788.74
2023-03-24T12:12:59.712Z,97782.73
2023-03-24T12:18:27.705Z,97776.46
2023-03-24T12:23:36.215Z,97768.15
2023-03-24T12:29:09.213Z,97765.73
2023-03-24T12:34:46.278Z,97766.73
2023-03-24T12:40:00.084Z,97760.14
2023-03-24T12:45:22.368Z,97756.81
2023-03-24T12:50:52.393Z,97752.52
2023-03-24T12:56:21.803Z,97748.30
2023-03-24T13:01:38.982Z,97741.58
2023-03-24T13:07:12.023Z,97734.83
2023-03-24T13:12:19.778Z,97732.36
2023-03-24T13:17:28.512Z,97729.15
2023-03-24T13:22:32.033Z,97727.66
2023-03-24T13:27:41.542Z,97721.13
2023-03-24T13:32:52.358Z,97710.71
2023-03-24T13:38:01.114Z,97706.77
2023-03-24T13:43:17.885Z,97703.17
2023-03-24T13:48:29.463Z,97702.42
2023-03-24T13:53:44.212Z,97696.23
2023-03-24T13:58:47.998Z,97696.64
2023-03-24T14:04:14.849Z,97690.48
2023-03-24T14:09:21.588Z,97684.09
2023-03-24T14:14:26.006Z,97680.36
2023-03-24T14:20:02.578Z,97676.40
2023-03-24T14:25:20.139Z,97658.11
2023-03-24T14:30:30.661Z,97652.55
2023-03-24T14:35:46.819Z,97658.89
2023-03-24T14:40:56.637Z,97659.29
2023-03-24T14:46:02.390Z,97661.62
2023-03-24T14:51:13.854Z,97663.91
2023-03-24T14:56:18.460Z,97663.86
2023-03-24T15:01:22.298Z,97662.48
2023-03-24T15:06:24.587Z,97657.61
2023-03-24T15:11:31.028Z,97654.11
2023-03-24T15:16:35.756Z,97650.92
2023-03-24T15:21:39.836Z,97650.31
2023-03-24T15:26:41.532Z,97657.81
2023-03-24T15:31:43.451Z,97656.98
2023-03-24T15:36:46.506Z,97654.88
2023-03-24T15:41:52.879Z,97654.62
2023-03-24T15:46:58.141Z,97659.00
2023-03-24T15:52:02.869Z,97666.63
2023-03-24T15:57:23.780Z,97673.83
2023-03-24T16:02:33.391Z,97671.31
2023-03-24T16:07:35.723Z,97676.89
2023-03-24T16:12:38.146Z,97688.60
2023-03-24T16:17:40.550Z,97701.95
2023-03-24T16:22:42.393Z,97711.10
2023-03-24T16:27:44.186Z,97713.83
2023-03-24T16:32:46.239Z,97717.89
2023-03-24T16:37:48.284Z,97715.67
2023-03-24T16:42:50.088Z,97715.52
2023-03-24T16:47:51.954Z,97711.46
2023-03-24T16:52:53.940Z,97720.94
2023-03-24T16:57:55.656Z,97721.88
2023-03-24T17:03:00.005Z,97712.14
2023-03-24T17:08:02.375Z,97697.31
2023-03-24T17:13:04.141Z,97680.59
2023-03-24T17:18:08.374Z,97683.58
2023-03-24T17:23:12.966Z,97717.02
2023-03-24T17:28:16.397Z,97740.14
2023-03-24T17:33:18.449Z,97763.04
2023-03-24T17:38:20.819Z,97760.90
2023-03-24T17:43:22.560Z,97763.42
2023-03-24T17:48:25.264Z,97755.92
2023-03-24T17:53:27.038Z,97747.30
2023-03-24T17:58:29.436Z,97740.10
2023-03-24T18:03:31.175Z,97739.83
2023-03-24T18:08:33.621Z,97727.62
2023-03-24T18:13:35.492Z,97714.57
2023-03-24T18:18:38.507Z,97714.09
2023-03-24T18:23:40.372Z,97730.71
2023-03-24T18:28:44.162Z,97723.89
2023-03-24T18:33:48.125Z,97731.16
2023-03-24T18:38:49.941Z,97739.15
2023-03-24T18:43:51.711Z,97730.25
2023-03-24T18:48:55.467Z,97721.52
2023-03-24T18:53:58.743Z,97713.34
2023-03-24T18:59:01.571Z,97723.23
2023-03-24T19:04:03.672Z,97729.11
2023-03-24T19:09:05.476Z,97733.41
2023-03-24T19:14:07.290Z,97733.42
2023-03-24T19:19:09.954Z,97729.70
2023-03-24T19:24:12.087Z,97731.29
2023-03-24T19:29:15.280Z,97735.61
2023-03-24T19:34:17.863Z,97739.59
2023-03-24T19:39:20.009Z,97733.79
2023-03-24T19:44:22.558Z,97738.86
2023-03-24T19:49:24.383Z,97734.77
2023-03-24T19:54:26.198Z,97735.89
2023-03-24T19:59:28.227Z,97732.52
2023-03-24T20:04:29.965Z,97731.19
2023-03-24T20:09:31.660Z,97723.68
2023-03-24T20:14:33.733Z,97728.98
2023-03-24T20:19:37.913Z,97728.63
2023-03-24T20:24:39.865Z,97724.61
2023-03-24T20:29:42.673Z,97728.17
2023-03-24T20:34:44.448Z,97728.59
2023-03-24T20:39:46.223Z,97731.73
2023-03-24T20:44:48.005Z,97731.34
2023-03-24T20:49:50.575Z,97728.66
2023-03-24T20:54:55.288Z,97717.39
2023-03-24T20:59:57.155Z,97721.45
2023-03-24T21:04:58.858Z,97731.55
2023-03-24T21:10:00.584Z,97732.66
2023-03-24T21:15:05.281Z,97735.86
2023-03-24T21:20:13.753Z,97738.53
2023-03-24T21:25:15.668Z,97745.39
2023-03-24T21:30:22.503Z,97737.96
2023-03-24T21:35:25.462Z,97740.39
2023-03-24T21:40:27.458Z,97736.22
2023-03-24T21:45:32.365Z,97728.29
2023-03-24T21:50:34.860Z,97723.83
2023-03-24T21:55:36.703Z,97719.38
2023-03-24T22:00:40.104Z,97719.63
2023-03-24T22:05:43.044Z,97725.73
2023-03-24T22:10:54.421Z,97720.28
2023-03-24T22:15:58.464Z,97715.16
2023-03-24T22:21:06.972Z,97710.72
2023-03-24T22:26:14.608Z,97719.16
2023-03-24T22:31:16.821Z,97714.18
2023-03-24T22:36:18.860Z,97712.68
2023-03-24T22:41:21.636Z,97695.13
2023-03-24T22:46:24.528Z,97704.61
2023-03-24T22:51:28.888Z,97706.86
2023-03-24T22:56:30.649Z,97714.48
2023-03-24T23:01:32.405Z,97715.36
2023-03-24T23:06:34.645Z,97713.86
2023-03-24T23:11:36.445Z,97713.59
2023-03-24T23:16:38.669Z,97716.42
2023-03-24T23:21:40.448Z,97706.84
2023-03-24T23:26:42.123Z,97704.65
2023-03-24T23:31:44.057Z,97711.95
2023-03-24T23:36:49.912Z,97715.30
2023-03-24T23:41:51.702Z,97705.61
2023-03-24T23:46:53.589Z,97717.55
2023-03-24T23:51:55.295Z,97730.52
2023-03-24T23:56:57.069Z,97720.00
